sensor_id;sensor_type;location;lat;lon;timestamp;temperature;humidity
71096;DHT22;58753;49.440;11.126;2023-12-20T00:02:09;5.00;88.34
71096;DHT22;58753;49.440;11.126;2023-12-20T00:04:35;5.04;88.50
71096;DHT22;58753;49.440;11.126;2023-12-20T00:07:00;5.04;88.54
71096;DHT22;58753;49.440;11.126;2023-12-20T00:09:26;5.06;88.66
71096;DHT22;58753;49.440;11.126;2023-12-20T00:11:52;5.06;88.89
71096;DHT22;58753;49.440;11.126;2023-12-20T00:14:17;5.05;89.09
71096;DHT22;58753;49.440;11.126;2023-12-20T00:16:45;5.06;89.17
71096;DHT22;58753;49.440;11.126;2023-12-20T00:19:10;5.09;89.16
71096;DHT22;58753;49.440;11.126;2023-12-20T00:21:36;5.09;89.33
71096;DHT22;58753;49.440;11.126;2023-12-20T00:24:04;5.09;89.38
71096;DHT22;58753;49.440;11.126;2023-12-20T00:26:31;5.15;89.83
71096;DHT22;58753;49.440;11.126;2023-12-20T00:28:57;5.15;89.85
71096;DHT22;58753;49.440;11.126;2023-12-20T00:31:22;5.13;89.84
71096;DHT22;58753;49.440;11.126;2023-12-20T00:33:50;5.15;90.00
71096;DHT22;58753;49.440;11.126;2023-12-20T00:36:15;5.13;90.34
71096;DHT22;58753;49.440;11.126;2023-12-20T00:38:43;5.19;90.42
71096;DHT22;58753;49.440;11.126;2023-12-20T00:41:08;5.18;90.61
71096;DHT22;58753;49.440;11.126;2023-12-20T00:43:34;5.18;90.48
71096;DHT22;58753;49.440;11.126;2023-12-20T00:46:02;5.19;90.62
71096;DHT22;58753;49.440;11.126;2023-12-20T00:48:30;5.18;90.78
71096;DHT22;58753;49.440;11.126;2023-12-20T00:50:57;5.15;90.74
71096;DHT22;58753;49.440;11.126;2023-12-20T00:53:25;5.19;91.14
71096;DHT22;58753;49.440;11.126;2023-12-20T00:55:50;5.16;90.95
71096;DHT22;58753;49.440;11.126;2023-12-20T00:58:18;5.16;91.09
71096;DHT22;58753;49.440;11.126;2023-12-20T01:00:43;5.13;91.23
71096;DHT22;58753;49.440;11.126;2023-12-20T01:03:11;5.13;91.35
71096;DHT22;58753;49.440;11.126;2023-12-20T01:05:37;5.12;91.37
71096;DHT22;58753;49.440;11.126;2023-12-20T01:08:04;5.16;91.69
71096;DHT22;58753;49.440;11.126;2023-12-20T01:10:32;5.13;91.42
71096;DHT22;58753;49.440;11.126;2023-12-20T01:13:00;5.09;91.66
71096;DHT22;58753;49.440;11.126;2023-12-20T01:15:25;5.13;91.83
71096;DHT22;58753;49.440;11.126;2023-12-20T01:17:51;5.08;91.76
71096;DHT22;58753;49.440;11.126;2023-12-20T01:20:16;5.06;91.87
71096;DHT22;58753;49.440;11.126;2023-12-20T01:22:47;5.08;92.03
71096;DHT22;58753;49.440;11.126;2023-12-20T01:25:13;5.06;92.17
71096;DHT22;58753;49.440;11.126;2023-12-20T01:27:40;5.06;92.20
71096;DHT22;58753;49.440;11.126;2023-12-20T01:30:06;5.05;92.12
71096;DHT22;58753;49.440;11.126;2023-12-20T01:32:32;5.05;92.32
71096;DHT22;58753;49.440;11.126;2023-12-20T01:34:59;5.08;92.58
71096;DHT22;58753;49.440;11.126;2023-12-20T01:37:27;5.11;92.71
71096;DHT22;58753;49.440;11.126;2023-12-20T01:39:54;5.09;92.72
71096;DHT22;58753;49.440;11.126;2023-12-20T01:42:22;5.08;92.47
71096;DHT22;58753;49.440;11.126;2023-12-20T01:44:47;5.02;92.52
71096;DHT22;58753;49.440;11.126;2023-12-20T01:47:15;5.00;92.80
71096;DHT22;58753;49.440;11.126;2023-12-20T01:49:41;5.02;92.80
71096;DHT22;58753;49.440;11.126;2023-12-20T01:52:10;5.00;92.88
71096;DHT22;58753;49.440;11.126;2023-12-20T01:54:37;4.99;92.87
71096;DHT22;58753;49.440;11.126;2023-12-20T01:57:05;4.96;93.02
71096;DHT22;58753;49.440;11.126;2023-12-20T01:59:36;4.98;93.08
71096;DHT22;58753;49.440;11.126;2023-12-20T02:02:03;4.99;93.18
71096;DHT22;58753;49.440;11.126;2023-12-20T02:04:28;5.00;93.26
71096;DHT22;58753;49.440;11.126;2023-12-20T02:06:55;4.99;93.26
71096;DHT22;58753;49.440;11.126;2023-12-20T02:09:23;4.96;93.35
71096;DHT22;58753;49.440;11.126;2023-12-20T02:11:49;4.99;93.27
71096;DHT22;58753;49.440;11.126;2023-12-20T02:14:14;4.96;93.43
71096;DHT22;58753;49.440;11.126;2023-12-20T02:16:40;4.95;93.37
71096;DHT22;58753;49.440;11.126;2023-12-20T02:19:13;4.89;93.33
71096;DHT22;58753;49.440;11.126;2023-12-20T02:21:39;4.88;93.40
71096;DHT22;58753;49.440;11.126;2023-12-20T02:24:04;4.84;93.36
71096;DHT22;58753;49.440;11.126;2023-12-20T02:26:32;4.78;93.37
71096;DHT22;58753;49.440;11.126;2023-12-20T02:28:58;4.72;93.26
71096;DHT22;58753;49.440;11.126;2023-12-20T02:31:26;4.67;93.55
71096;DHT22;58753;49.440;11.126;2023-12-20T02:33:53;4.65;93.43
71096;DHT22;58753;49.440;11.126;2023-12-20T02:36:19;4.62;93.38
71096;DHT22;58753;49.440;11.126;2023-12-20T02:38:44;4.58;93.38
71096;DHT22;58753;49.440;11.126;2023-12-20T02:41:10;4.50;93.30
71096;DHT22;58753;49.440;11.126;2023-12-20T02:43:35;4.45;93.44
71096;DHT22;58753;49.440;11.126;2023-12-20T02:46:03;4.45;93.50
71096;DHT22;58753;49.440;11.126;2023-12-20T02:48:28;4.41;93.67
71096;DHT22;58753;49.440;11.126;2023-12-20T02:50:56;4.37;93.65
71096;DHT22;58753;49.440;11.126;2023-12-20T02:53:21;4.37;93.65
71096;DHT22;58753;49.440;11.126;2023-12-20T02:55:49;4.34;93.83
71096;DHT22;58753;49.440;11.126;2023-12-20T02:58:14;4.34;93.81
71096;DHT22;58753;49.440;11.126;2023-12-20T03:00:39;4.29;93.71
71096;DHT22;58753;49.440;11.126;2023-12-20T03:03:05;4.25;93.84
71096;DHT22;58753;49.440;11.126;2023-12-20T03:05:31;4.20;93.78
71096;DHT22;58753;49.440;11.126;2023-12-20T03:08:00;4.13;93.86
71096;DHT22;58753;49.440;11.126;2023-12-20T03:10:27;4.14;93.91
71096;DHT22;58753;49.440;11.126;2023-12-20T03:12:53;4.10;93.91
71096;DHT22;58753;49.440;11.126;2023-12-20T03:15:18;4.07;93.98
71096;DHT22;58753;49.440;11.126;2023-12-20T03:17:43;4.09;94.13
71096;DHT22;58753;49.440;11.126;2023-12-20T03:20:09;4.04;94.12
71096;DHT22;58753;49.440;11.126;2023-12-20T03:22:34;4.06;94.27
71096;DHT22;58753;49.440;11.126;2023-12-20T03:25:00;4.06;94.20
71096;DHT22;58753;49.440;11.126;2023-12-20T03:27:28;4.00;94.23
71096;DHT22;58753;49.440;11.126;2023-12-20T03:29:53;4.02;94.34
71096;DHT22;58753;49.440;11.126;2023-12-20T03:32:18;3.97;94.31
71096;DHT22;58753;49.440;11.126;2023-12-20T03:34:44;3.97;94.31
71096;DHT22;58753;49.440;11.126;2023-12-20T03:37:09;3.92;94.30
71096;DHT22;58753;49.440;11.126;2023-12-20T03:39:34;3.92;94.30
71096;DHT22;58753;49.440;11.126;2023-12-20T03:42:02;3.90;94.42
71096;DHT22;58753;49.440;11.126;2023-12-20T03:44:30;3.86;94.43
71096;DHT22;58753;49.440;11.126;2023-12-20T03:46:58;3.89;94.49
71096;DHT22;58753;49.440;11.126;2023-12-20T03:49:23;3.86;94.52
71096;DHT22;58753;49.440;11.126;2023-12-20T03:51:49;3.82;94.52
71096;DHT22;58753;49.440;11.126;2023-12-20T03:54:14;3.79;94.53
71096;DHT22;58753;49.440;11.126;2023-12-20T03:56:39;3.80;94.64
71096;DHT22;58753;49.440;11.126;2023-12-20T03:59:07;3.80;94.66
71096;DHT22;58753;49.440;11.126;2023-12-20T04:01:35;3.80;94.66
71096;DHT22;58753;49.440;11.126;2023-12-20T04:04:01;3.82;94.69
71096;DHT22;58753;49.440;11.126;2023-12-20T04:06:28;3.80;94.76
71096;DHT22;58753;49.440;11.126;2023-12-20T04:08:54;3.79;94.76
71096;DHT22;58753;49.440;11.126;2023-12-20T04:11:19;3.78;94.78
71096;DHT22;58753;49.440;11.126;2023-12-20T04:13:47;3.78;94.87
71096;DHT22;58753;49.440;11.126;2023-12-20T04:16:12;3.75;94.80
71096;DHT22;58753;49.440;11.126;2023-12-20T04:18:38;3.76;94.88
71096;DHT22;58753;49.440;11.126;2023-12-20T04:21:03;3.78;94.92
71096;DHT22;58753;49.440;11.126;2023-12-20T04:23:31;3.75;94.97
71096;DHT22;58753;49.440;11.126;2023-12-20T04:25:57;3.75;94.92
71096;DHT22;58753;49.440;11.126;2023-12-20T04:28:22;3.76;95.05
71096;DHT22;58753;49.440;11.126;2023-12-20T04:30:50;3.76;95.05
71096;DHT22;58753;49.440;11.126;2023-12-20T04:33:15;3.75;95.07
71096;DHT22;58753;49.440;11.126;2023-12-20T04:35:43;3.76;95.06
71096;DHT22;58753;49.440;11.126;2023-12-20T04:38:10;3.73;95.10
71096;DHT22;58753;49.440;11.126;2023-12-20T04:40:38;3.72;95.09
71096;DHT22;58753;49.440;11.126;2023-12-20T04:43:06;3.69;95.13
71096;DHT22;58753;49.440;11.126;2023-12-20T04:45:31;3.70;95.15
71096;DHT22;58753;49.440;11.126;2023-12-20T04:47:59;3.70;95.18
71096;DHT22;58753;49.440;11.126;2023-12-20T04:50:27;3.70;95.22
71096;DHT22;58753;49.440;11.126;2023-12-20T04:52:52;3.72;95.23
71096;DHT22;58753;49.440;11.126;2023-12-20T04:55:17;3.73;95.30
71096;DHT22;58753;49.440;11.126;2023-12-20T04:57:45;3.73;95.30
71096;DHT22;58753;49.440;11.126;2023-12-20T05:00:11;3.72;95.26
71096;DHT22;58753;49.440;11.126;2023-12-20T05:02:40;3.72;95.29
71096;DHT22;58753;49.440;11.126;2023-12-20T05:05:06;3.72;95.36
71096;DHT22;58753;49.440;11.126;2023-12-20T05:07:32;3.72;95.35
71096;DHT22;58753;49.440;11.126;2023-12-20T05:09:57;3.73;95.40
71096;DHT22;58753;49.440;11.126;2023-12-20T05:12:23;3.72;95.41
71096;DHT22;58753;49.440;11.126;2023-12-20T05:14:48;3.73;95.40
71096;DHT22;58753;49.440;11.126;2023-12-20T05:17:14;3.72;95.45
71096;DHT22;58753;49.440;11.126;2023-12-20T05:19:39;3.70;95.43
71096;DHT22;58753;49.440;11.126;2023-12-20T05:22:04;3.70;95.47
71096;DHT22;58753;49.440;11.126;2023-12-20T05:24:30;3.69;95.44
71096;DHT22;58753;49.440;11.126;2023-12-20T05:26:55;3.69;95.44
71096;DHT22;58753;49.440;11.126;2023-12-20T05:29:23;3.68;95.48
71096;DHT22;58753;49.440;11.126;2023-12-20T05:31:48;3.65;95.48
71096;DHT22;58753;49.440;11.126;2023-12-20T05:34:13;3.65;95.53
71096;DHT22;58753;49.440;11.126;2023-12-20T05:36:41;3.68;95.52
71096;DHT22;58753;49.440;11.126;2023-12-20T05:39:06;3.66;95.59
71096;DHT22;58753;49.440;11.126;2023-12-20T05:41:33;3.66;95.51
71096;DHT22;58753;49.440;11.126;2023-12-20T05:43:58;3.63;95.55
71096;DHT22;58753;49.440;11.126;2023-12-20T05:46:24;3.62;95.61
71096;DHT22;58753;49.440;11.126;2023-12-20T05:48:50;3.66;95.59
71096;DHT22;58753;49.440;11.126;2023-12-20T05:51:18;3.65;95.58
71096;DHT22;58753;49.440;11.126;2023-12-20T05:53:46;3.63;95.57
71096;DHT22;58753;49.440;11.126;2023-12-20T05:56:14;3.62;95.61
71096;DHT22;58753;49.440;11.126;2023-12-20T05:58:44;3.62;95.67
71096;DHT22;58753;49.440;11.126;2023-12-20T06:01:10;3.62;95.65
71096;DHT22;58753;49.440;11.126;2023-12-20T06:03:35;3.62;95.65
71096;DHT22;58753;49.440;11.126;2023-12-20T06:06:08;3.60;95.64
71096;DHT22;58753;49.440;11.126;2023-12-20T06:08:36;3.63;95.68
71096;DHT22;58753;49.440;11.126;2023-12-20T06:11:04;3.63;95.66
71096;DHT22;58753;49.440;11.126;2023-12-20T06:13:32;3.63;95.69
71096;DHT22;58753;49.440;11.126;2023-12-20T06:16:00;3.62;95.73
71096;DHT22;58753;49.440;11.126;2023-12-20T06:18:25;3.63;95.69
71096;DHT22;58753;49.440;11.126;2023-12-20T06:20:51;3.68;95.77
71096;DHT22;58753;49.440;11.126;2023-12-20T06:23:16;3.66;95.73
71096;DHT22;58753;49.440;11.126;2023-12-20T06:25:44;3.66;95.66
71096;DHT22;58753;49.440;11.126;2023-12-20T06:28:09;3.68;95.81
71096;DHT22;58753;49.440;11.126;2023-12-20T06:30:39;3.66;95.79
71096;DHT22;58753;49.440;11.126;2023-12-20T06:33:04;3.69;95.80
71096;DHT22;58753;49.440;11.126;2023-12-20T06:35:32;3.68;95.84
71096;DHT22;58753;49.440;11.126;2023-12-20T06:38:00;3.69;95.79
71096;DHT22;58753;49.440;11.126;2023-12-20T06:40:26;3.70;95.84
71096;DHT22;58753;49.440;11.126;2023-12-20T06:42:54;3.69;95.92
71096;DHT22;58753;49.440;11.126;2023-12-20T06:45:19;3.69;95.88
71096;DHT22;58753;49.440;11.126;2023-12-20T06:47:47;3.72;95.94
71096;DHT22;58753;49.440;11.126;2023-12-20T06:50:17;3.70;95.92
71096;DHT22;58753;49.440;11.126;2023-12-20T06:52:43;3.72;95.92
71096;DHT22;58753;49.440;11.126;2023-12-20T06:55:08;3.73;95.99
71096;DHT22;58753;49.440;11.126;2023-12-20T06:57:35;3.70;95.99
71096;DHT22;58753;49.440;11.126;2023-12-20T07:00:04;3.73;96.07
71096;DHT22;58753;49.440;11.126;2023-12-20T07:02:36;3.76;96.06
71096;DHT22;58753;49.440;11.126;2023-12-20T07:05:01;3.78;96.07
71096;DHT22;58753;49.440;11.126;2023-12-20T07:07:29;3.80;96.11
71096;DHT22;58753;49.440;11.126;2023-12-20T07:09:57;3.82;96.11
71096;DHT22;58753;49.440;11.126;2023-12-20T07:12:22;3.80;96.15
71096;DHT22;58753;49.440;11.126;2023-12-20T07:14:48;3.82;96.14
71096;DHT22;58753;49.440;11.126;2023-12-20T07:17:15;3.85;96.17
71096;DHT22;58753;49.440;11.126;2023-12-20T07:19:41;3.83;96.17
71096;DHT22;58753;49.440;11.126;2023-12-20T07:22:07;3.89;96.26
71096;DHT22;58753;49.440;11.126;2023-12-20T07:24:33;3.87;96.24
71096;DHT22;58753;49.440;11.126;2023-12-20T07:27:04;3.92;96.29
71096;DHT22;58753;49.440;11.126;2023-12-20T07:29:34;3.93;96.25
71096;DHT22;58753;49.440;11.126;2023-12-20T07:32:00;3.92;96.26
71096;DHT22;58753;49.440;11.126;2023-12-20T07:34:25;3.93;96.22
71096;DHT22;58753;49.440;11.126;2023-12-20T07:36:50;3.96;96.27
71096;DHT22;58753;49.440;11.126;2023-12-20T07:39:20;3.96;96.29
71096;DHT22;58753;49.440;11.126;2023-12-20T07:41:46;3.94;96.33
71096;DHT22;58753;49.440;11.126;2023-12-20T07:44:11;3.96;96.29
71096;DHT22;58753;49.440;11.126;2023-12-20T07:46:37;3.97;96.29
71096;DHT22;58753;49.440;11.126;2023-12-20T07:49:03;3.97;96.34
71096;DHT22;58753;49.440;11.126;2023-12-20T07:51:34;4.03;96.40
71096;DHT22;58753;49.440;11.126;2023-12-20T07:53:59;4.06;96.38
71096;DHT22;58753;49.440;11.126;2023-12-20T07:56:24;4.03;96.31
71096;DHT22;58753;49.440;11.126;2023-12-20T07:58:50;4.07;96.39
71096;DHT22;58753;49.440;11.126;2023-12-20T08:01:18;4.06;96.41
71096;DHT22;58753;49.440;11.126;2023-12-20T08:03:46;4.07;96.42
71096;DHT22;58753;49.440;11.126;2023-12-20T08:06:11;4.10;96.44
71096;DHT22;58753;49.440;11.126;2023-12-20T08:08:39;4.13;96.48
71096;DHT22;58753;49.440;11.126;2023-12-20T08:11:04;4.16;96.42
71096;DHT22;58753;49.440;11.126;2023-12-20T08:13:30;4.16;96.46
71096;DHT22;58753;49.440;11.126;2023-12-20T08:15:55;4.18;96.48
71096;DHT22;58753;49.440;11.126;2023-12-20T08:18:21;4.21;96.46
71096;DHT22;58753;49.440;11.126;2023-12-20T08:20:49;4.31;96.57
71096;DHT22;58753;49.440;11.126;2023-12-20T08:23:15;4.34;96.46
71096;DHT22;58753;49.440;11.126;2023-12-20T08:25:40;4.36;96.44
71096;DHT22;58753;49.440;11.126;2023-12-20T08:28:05;4.34;96.40
71096;DHT22;58753;49.440;11.126;2023-12-20T08:30:31;4.37;96.39
71096;DHT22;58753;49.440;11.126;2023-12-20T08:33:02;4.41;96.41
71096;DHT22;58753;49.440;11.126;2023-12-20T08:35:27;4.47;96.42
71096;DHT22;58753;49.440;11.126;2023-12-20T08:37:56;4.54;96.33
71096;DHT22;58753;49.440;11.126;2023-12-20T08:40:21;4.55;96.21
71096;DHT22;58753;49.440;11.126;2023-12-20T08:42:49;4.58;96.14
71096;DHT22;58753;49.440;11.126;2023-12-20T08:45:14;4.58;95.80
71096;DHT22;58753;49.440;11.126;2023-12-20T08:47:44;4.54;95.68
71096;DHT22;58753;49.440;11.126;2023-12-20T08:50:10;4.58;95.38
71096;DHT22;58753;49.440;11.126;2023-12-20T08:52:36;4.53;95.17
71096;DHT22;58753;49.440;11.126;2023-12-20T08:55:01;4.48;94.75
71096;DHT22;58753;49.440;11.126;2023-12-20T08:57:31;4.41;94.72
71096;DHT22;58753;49.440;11.126;2023-12-20T08:59:57;4.37;94.68
71096;DHT22;58753;49.440;11.126;2023-12-20T09:02:25;4.37;94.38
71096;DHT22;58753;49.440;11.126;2023-12-20T09:04:50;4.34;94.29
71096;DHT22;58753;49.440;11.126;2023-12-20T09:09:52;4.24;94.15
71096;DHT22;58753;49.440;11.126;2023-12-20T09:12:20;4.17;94.17
71096;DHT22;58753;49.440;11.126;2023-12-20T09:14:47;4.16;94.31
71096;DHT22;58753;49.440;11.126;2023-12-20T09:17:15;4.25;94.34
71096;DHT22;58753;49.440;11.126;2023-12-20T09:19:42;4.34;94.08
71096;DHT22;58753;49.440;11.126;2023-12-20T09:22:09;4.33;93.86
71096;DHT22;58753;49.440;11.126;2023-12-20T09:24:34;4.23;93.78
71096;DHT22;58753;49.440;11.126;2023-12-20T09:27:02;4.16;93.76
71096;DHT22;58753;49.440;11.126;2023-12-20T09:29:30;4.20;93.67
71096;DHT22;58753;49.440;11.126;2023-12-20T09:31:56;4.21;93.66
71096;DHT22;58753;49.440;11.126;2023-12-20T09:34:24;4.23;93.78
71096;DHT22;58753;49.440;11.126;2023-12-20T09:36:51;4.23;93.69
71096;DHT22;58753;49.440;11.126;2023-12-20T09:39:17;4.27;93.68
71096;DHT22;58753;49.440;11.126;2023-12-20T09:42:00;4.34;93.64
71096;DHT22;58753;49.440;11.126;2023-12-20T09:44:29;4.36;93.34
71096;DHT22;58753;49.440;11.126;2023-12-20T09:46:57;4.37;93.18
71096;DHT22;58753;49.440;11.126;2023-12-20T09:49:23;4.40;92.98
71096;DHT22;58753;49.440;11.126;2023-12-20T09:51:50;4.45;92.58
71096;DHT22;58753;49.440;11.126;2023-12-20T09:54:20;4.45;92.32
71096;DHT22;58753;49.440;11.126;2023-12-20T09:56:51;4.54;92.11
71096;DHT22;58753;49.440;11.126;2023-12-20T09:59:18;4.62;91.98
71096;DHT22;58753;49.440;11.126;2023-12-20T10:01:44;4.61;91.71
71096;DHT22;58753;49.440;11.126;2023-12-20T10:04:13;4.57;91.26
71096;DHT22;58753;49.440;11.126;2023-12-20T10:06:44;4.54;91.05
71096;DHT22;58753;49.440;11.126;2023-12-20T10:09:12;4.61;90.94
71096;DHT22;58753;49.440;11.126;2023-12-20T10:11:40;4.74;90.29
71096;DHT22;58753;49.440;11.126;2023-12-20T10:14:06;4.79;90.08
71096;DHT22;58753;49.440;11.126;2023-12-20T10:16:35;4.84;89.71
71096;DHT22;58753;49.440;11.126;2023-12-20T10:19:00;4.93;89.44
71096;DHT22;58753;49.440;11.126;2023-12-20T10:21:26;5.00;89.22
71096;DHT22;58753;49.440;11.126;2023-12-20T10:23:53;5.15;88.95
71096;DHT22;58753;49.440;11.126;2023-12-20T10:28:55;5.32;87.62
71096;DHT22;58753;49.440;11.126;2023-12-20T10:33:57;5.50;87.26
71096;DHT22;58753;49.440;11.126;2023-12-20T10:36:26;5.60;86.75
71096;DHT22;58753;49.440;11.126;2023-12-20T10:38:55;5.59;86.19
71096;DHT22;58753;49.440;11.126;2023-12-20T10:41:29;5.60;85.77
71096;DHT22;58753;49.440;11.126;2023-12-20T10:43:58;5.57;85.50
71096;DHT22;58753;49.440;11.126;2023-12-20T10:46:25;5.59;85.20
71096;DHT22;58753;49.440;11.126;2023-12-20T10:48:55;5.61;84.86
71096;DHT22;58753;49.440;11.126;2023-12-20T10:51:21;5.56;84.40
71096;DHT22;58753;49.440;11.126;2023-12-20T10:53:48;5.54;84.62
71096;DHT22;58753;49.440;11.126;2023-12-20T10:56:18;5.47;84.33
71096;DHT22;58753;49.440;11.126;2023-12-20T10:58:47;5.44;84.44
71096;DHT22;58753;49.440;11.126;2023-12-20T11:01:32;5.37;84.21
71096;DHT22;58753;49.440;11.126;2023-12-20T11:03:58;5.33;83.95
71096;DHT22;58753;49.440;11.126;2023-12-20T11:06:35;5.30;84.08
71096;DHT22;58753;49.440;11.126;2023-12-20T11:12:25;5.40;83.67
71096;DHT22;58753;49.440;11.126;2023-12-20T11:14:53;5.50;83.67
71096;DHT22;58753;49.440;11.126;2023-12-20T11:17:24;5.50;83.36
71096;DHT22;58753;49.440;11.126;2023-12-20T11:22:30;5.59;82.61
71096;DHT22;58753;49.440;11.126;2023-12-20T11:25:10;5.54;82.47
71096;DHT22;58753;49.440;11.126;2023-12-20T11:27:42;5.47;82.18
71096;DHT22;58753;49.440;11.126;2023-12-20T11:30:09;5.36;82.47
71096;DHT22;58753;49.440;11.126;2023-12-20T11:32:35;5.25;82.51
71096;DHT22;58753;49.440;11.126;2023-12-20T11:35:17;5.20;83.10
71096;DHT22;58753;49.440;11.126;2023-12-20T11:37:45;5.15;83.33
71096;DHT22;58753;49.440;11.126;2023-12-20T11:40:18;5.19;83.71
71096;DHT22;58753;49.440;11.126;2023-12-20T11:42:48;5.15;83.49
71096;DHT22;58753;49.440;11.126;2023-12-20T11:45:20;5.18;83.63
71096;DHT22;58753;49.440;11.126;2023-12-20T11:47:50;5.23;83.94
71096;DHT22;58753;49.440;11.126;2023-12-20T11:50:16;5.28;83.83
71096;DHT22;58753;49.440;11.126;2023-12-20T11:52:42;5.36;83.87
71096;DHT22;58753;49.440;11.126;2023-12-20T11:55:07;5.39;83.69
71096;DHT22;58753;49.440;11.126;2023-12-20T11:57:36;5.37;83.90
71096;DHT22;58753;49.440;11.126;2023-12-20T12:00:02;5.32;83.96
71096;DHT22;58753;49.440;11.126;2023-12-20T12:02:28;5.26;84.09
71096;DHT22;58753;49.440;11.126;2023-12-20T12:04:53;5.20;84.05
71096;DHT22;58753;49.440;11.126;2023-12-20T12:07:19;5.09;84.33
71096;DHT22;58753;49.440;11.126;2023-12-20T12:09:47;5.05;84.82
71096;DHT22;58753;49.440;11.126;2023-12-20T12:12:13;4.99;84.95
71096;DHT22;58753;49.440;11.126;2023-12-20T12:14:39;5.02;85.28
71096;DHT22;58753;49.440;11.126;2023-12-20T12:17:12;5.00;85.26
71096;DHT22;58753;49.440;11.126;2023-12-20T12:19:42;5.08;85.60
71096;DHT22;58753;49.440;11.126;2023-12-20T12:22:11;5.13;85.54
71096;DHT22;58753;49.440;11.126;2023-12-20T12:24:41;5.22;85.34
71096;DHT22;58753;49.440;11.126;2023-12-20T12:27:10;5.29;85.21
71096;DHT22;58753;49.440;11.126;2023-12-20T12:29:40;5.36;85.00
71096;DHT22;58753;49.440;11.126;2023-12-20T12:32:08;5.42;84.81
71096;DHT22;58753;49.440;11.126;2023-12-20T12:34:35;5.37;84.52
71096;DHT22;58753;49.440;11.126;2023-12-20T12:37:01;5.36;84.42
71096;DHT22;58753;49.440;11.126;2023-12-20T12:39:26;5.40;84.56
71096;DHT22;58753;49.440;11.126;2023-12-20T12:41:55;5.40;84.08
71096;DHT22;58753;49.440;11.126;2023-12-20T12:44:20;5.43;83.97
71096;DHT22;58753;49.440;11.126;2023-12-20T12:46:54;5.50;83.78
71096;DHT22;58753;49.440;11.126;2023-12-20T12:49:20;5.49;83.59
71096;DHT22;58753;49.440;11.126;2023-12-20T12:51:46;5.53;83.65
71096;DHT22;58753;49.440;11.126;2023-12-20T12:54:12;5.50;83.73
71096;DHT22;58753;49.440;11.126;2023-12-20T12:56:41;5.56;83.43
71096;DHT22;58753;49.440;11.126;2023-12-20T12:59:08;5.61;83.48
71096;DHT22;58753;49.440;11.126;2023-12-20T13:01:36;5.70;82.97
71096;DHT22;58753;49.440;11.126;2023-12-20T13:04:04;5.71;82.76
71096;DHT22;58753;49.440;11.126;2023-12-20T13:06:32;5.77;82.74
71096;DHT22;58753;49.440;11.126;2023-12-20T13:08:57;5.74;82.33
71096;DHT22;58753;49.440;11.126;2023-12-20T13:11:25;5.74;82.52
71096;DHT22;58753;49.440;11.126;2023-12-20T13:13:53;5.80;82.39
71096;DHT22;58753;49.440;11.126;2023-12-20T13:16:18;5.75;82.07
71096;DHT22;58753;49.440;11.126;2023-12-20T13:18:46;5.77;82.28
71096;DHT22;58753;49.440;11.126;2023-12-20T13:21:16;5.73;81.23
71096;DHT22;58753;49.440;11.126;2023-12-20T13:23:42;5.71;81.21
71096;DHT22;58753;49.440;11.126;2023-12-20T13:26:09;5.61;81.24
71096;DHT22;58753;49.440;11.126;2023-12-20T13:28:37;5.57;80.98
71096;DHT22;58753;49.440;11.126;2023-12-20T13:31:02;5.70;80.92
71096;DHT22;58753;49.440;11.126;2023-12-20T13:33:28;5.77;80.89
71096;DHT22;58753;49.440;11.126;2023-12-20T13:35:53;5.89;80.72
71096;DHT22;58753;49.440;11.126;2023-12-20T13:38:18;5.89;79.94
71096;DHT22;58753;49.440;11.126;2023-12-20T13:40:44;5.87;80.31
71096;DHT22;58753;49.440;11.126;2023-12-20T13:43:09;5.83;79.93
71096;DHT22;58753;49.440;11.126;2023-12-20T13:45:38;5.77;79.96
71096;DHT22;58753;49.440;11.126;2023-12-20T13:48:05;5.71;80.44
71096;DHT22;58753;49.440;11.126;2023-12-20T13:50:31;5.67;80.11
71096;DHT22;58753;49.440;11.126;2023-12-20T13:52:56;5.60;80.09
71096;DHT22;58753;49.440;11.126;2023-12-20T13:55:22;5.57;80.56
71096;DHT22;58753;49.440;11.126;2023-12-20T13:57:50;5.47;80.12
71096;DHT22;58753;49.440;11.126;2023-12-20T14:00:16;5.42;80.74
71096;DHT22;58753;49.440;11.126;2023-12-20T14:02:44;5.40;80.61
71096;DHT22;58753;49.440;11.126;2023-12-20T14:05:09;5.36;80.67
71096;DHT22;58753;49.440;11.126;2023-12-20T14:07:39;5.32;80.46
71096;DHT22;58753;49.440;11.126;2023-12-20T14:10:07;5.28;80.61
71096;DHT22;58753;49.440;11.126;2023-12-20T14:12:35;5.29;81.12
71096;DHT22;58753;49.440;11.126;2023-12-20T14:15:03;5.32;81.00
71096;DHT22;58753;49.440;11.126;2023-12-20T14:17:31;5.33;80.84
71096;DHT22;58753;49.440;11.126;2023-12-20T14:19:56;5.23;80.58
71096;DHT22;58753;49.440;11.126;2023-12-20T14:22:24;5.22;80.77
71096;DHT22;58753;49.440;11.126;2023-12-20T14:24:50;5.22;80.86
71096;DHT22;58753;49.440;11.126;2023-12-20T14:27:19;5.20;80.88
71096;DHT22;58753;49.440;11.126;2023-12-20T14:29:47;5.18;80.81
71096;DHT22;58753;49.440;11.126;2023-12-20T14:32:13;5.18;80.76
71096;DHT22;58753;49.440;11.126;2023-12-20T14:34:40;5.18;80.78
71096;DHT22;58753;49.440;11.126;2023-12-20T14:37:10;5.09;80.90
71096;DHT22;58753;49.440;11.126;2023-12-20T14:39:38;5.09;81.07
71096;DHT22;58753;49.440;11.126;2023-12-20T14:42:10;5.02;81.50
71096;DHT22;58753;49.440;11.126;2023-12-20T14:44:42;4.92;81.29
71096;DHT22;58753;49.440;11.126;2023-12-20T14:47:08;4.84;81.72
71096;DHT22;58753;49.440;11.126;2023-12-20T14:49:34;4.79;82.29
71096;DHT22;58753;49.440;11.126;2023-12-20T14:51:59;4.78;82.78
71096;DHT22;58753;49.440;11.126;2023-12-20T14:54:27;4.72;82.63
71096;DHT22;58753;49.440;11.126;2023-12-20T14:56:52;4.71;82.83
71096;DHT22;58753;49.440;11.126;2023-12-20T14:59:17;4.72;83.21
71096;DHT22;58753;49.440;11.126;2023-12-20T15:01:43;4.74;83.05
71096;DHT22;58753;49.440;11.126;2023-12-20T15:04:11;4.69;83.24
71096;DHT22;58753;49.440;11.126;2023-12-20T15:06:37;4.71;83.56
71096;DHT22;58753;49.440;11.126;2023-12-20T15:09:02;4.69;83.42
71096;DHT22;58753;49.440;11.126;2023-12-20T15:11:33;4.71;83.75
71096;DHT22;58753;49.440;11.126;2023-12-20T15:13:59;4.72;83.57
71096;DHT22;58753;49.440;11.126;2023-12-20T15:16:26;4.75;83.89
71096;DHT22;58753;49.440;11.126;2023-12-20T15:18:52;4.78;84.00
71096;DHT22;58753;49.440;11.126;2023-12-20T15:21:18;4.76;83.81
71096;DHT22;58753;49.440;11.126;2023-12-20T15:23:55;4.79;84.11
71096;DHT22;58753;49.440;11.126;2023-12-20T15:26:33;4.81;83.78
71096;DHT22;58753;49.440;11.126;2023-12-20T15:28:59;4.74;83.83
71096;DHT22;58753;49.440;11.126;2023-12-20T15:31:30;4.74;83.97
71096;DHT22;58753;49.440;11.126;2023-12-20T15:33:58;4.75;83.97
71096;DHT22;58753;49.440;11.126;2023-12-20T15:36:29;4.76;84.04
71096;DHT22;58753;49.440;11.126;2023-12-20T15:38:57;4.79;83.75
71096;DHT22;58753;49.440;11.126;2023-12-20T15:41:22;4.82;83.64
71096;DHT22;58753;49.440;11.126;2023-12-20T15:43:51;4.79;83.52